| time (UTC) | temp F | wind direction | speed knots | gust knots | rain 1hr in | rain 24hr in | rain mn in | humidity % | barometer mb |
| 20260507094504 | 55 | 51 | 2.6 | 7.8 | 0.00 | 0.00 | 0.00 | 68 | 1019.2 |
| 20260507094004 | 55 | 94 | 4.3 | 8.7 | 0.00 | 0.00 | 0.00 | 70 | 1019.2 |
| 20260507093004 | 55 | 114 | 4.3 | 7.8 | 0.00 | 0.00 | 0.00 | 70 | 1019.2 |
| 20260507091504 | 55 | 123 | 4.3 | 7.8 | 0.00 | 0.00 | 0.00 | 70 | 1018.9 |
| 20260507091005 | 55 | 53 | 2.6 | 7.0 | 0.00 | 0.00 | 0.00 | 70 | 1019.0 |
| 20260507090503 | 54 | 95 | 5.2 | 7.0 | 0.00 | 0.00 | 0.00 | 67 | 1018.9 |
| 20260507085504 | 55 | 83 | 1.7 | 7.0 | 0.00 | 0.00 | 0.00 | 66 | 1018.8 |
| 20260507085004 | 54 | 88 | 2.6 | 7.0 | 0.00 | 0.00 | 0.00 | 66 | 1018.8 |
| 20260507084004 | 54 | 93 | 2.6 | 7.8 | 0.00 | 0.00 | 0.00 | 68 | 1018.6 |
| 20260507083503 | 54 | 50 | 2.6 | 6.1 | 0.00 | 0.00 | 0.00 | 65 | 1018.6 |
| 20260507083004 | 54 | 51 | 2.6 | 6.1 | 0.00 | 0.00 | 0.00 | 64 | 1018.6 |
| 20260507082504 | 54 | 43 | 2.6 | 10.4 | 0.00 | 0.00 | 0.00 | 64 | 1018.6 |
| 20260507081504 | 53 | 44 | 4.3 | 8.7 | 0.00 | 0.00 | 0.00 | 65 | 1018.5 |
| 20260507081003 | 53 | 72 | 2.6 | 8.7 | 0.00 | 0.00 | 0.00 | 68 | 1018.5 |
| 20260507080004 | 52 | 36 | 2.6 | 6.1 | 0.00 | 0.00 | 0.00 | 69 | 1018.4 |
| 20260507074503 | 52 | 77 | 2.6 | 10.4 | 0.00 | 0.00 | 0.00 | 69 | 1018.4 |
| 20260507073503 | 52 | 60 | 2.6 | 7.0 | 0.00 | 0.00 | 0.00 | 70 | 1018.3 |
| 20260507072004 | 52 | 44 | 1.7 | 6.1 | 0.00 | 0.00 | 0.00 | 72 | 1018.4 |
| 20260507071004 | 51 | 66 | 2.6 | 7.0 | 0.00 | 0.00 | 0.00 | 74 | 1018.4 |
| 20260507064003 | 49 | 58 | 5.2 | 10.4 | 0.00 | 0.00 | 0.00 | 76 | 1018.1 |
| 20260507062003 | 48 | 359 | 2.6 | 7.0 | 0.00 | 0.00 | 0.00 | 79 | 1018.0 |
| 20260507061504 | 48 | 355 | 1.7 | 7.8 | 0.00 | 0.00 | 0.00 | 81 | 1018.0 |
| 20260507061004 | 47 | 39 | 4.3 | 7.0 | 0.00 | 0.00 | 0.00 | 80 | 1018.0 |
| 20260507060003 | 47 | 64 | 5.2 | 7.8 | 0.00 | 0.00 | 0.00 | 82 | 1017.9 |
| 20260507055004 | 47 | 8 | 1.7 | 5.2 | 0.00 | 0.00 | 0.00 | 83 | 1017.9 |
| 20260507054004 | 47 | 25 | 0.9 | 2.6 | 0.00 | 0.00 | 0.00 | 83 | 1017.8 |
| 20260507053504 | 47 | 300 | 0.0 | 2.6 | 0.00 | 0.00 | 0.00 | 84 | 1017.7 |
| 20260507053005 | 47 | 344 | 0.9 | 2.6 | 0.00 | 0.00 | 0.00 | 84 | 1017.7 |
| 20260507050504 | 44 | 5 | 0.0 | 1.7 | 0.00 | 0.00 | 0.00 | 90 | 1017.6 |
| 20260507050004 | 43 | 6 | 0.9 | 1.7 | 0.00 | 0.00 | 0.00 | 90 | 1017.6 |
| 20260507045504 | 43 | 314 | 0.0 | 0.9 | 0.00 | 0.00 | 0.00 | 91 | 1017.6 |
| 20260507044504 | 41 | 307 | 0.0 | 0.0 | 0.00 | 0.00 | 0.00 | 90 | 1017.5 |
| 20260507041504 | 40 | 297 | 0.0 | 0.9 | 0.00 | 0.00 | 0.00 | 90 | 1017.2 |
| 20260507040503 | 40 | 283 | 0.0 | 0.9 | 0.00 | 0.00 | 0.00 | 90 | 1017.0 |
| 20260507040004 | 40 | 283 | 0.0 | 0.9 | 0.00 | 0.00 | 0.00 | 91 | 1017.1 |
| 20260507035504 | 39 | 283 | 0.9 | 2.6 | 0.00 | 0.00 | 0.00 | 91 | 1017.0 |
| 20260507034504 | 39 | 301 | 0.9 | 1.7 | 0.00 | 0.00 | 0.00 | 91 | 1016.9 |
| 20260507034004 | 39 | 307 | 0.9 | 1.7 | 0.00 | 0.00 | 0.00 | 90 | 1016.8 |
| 20260507031004 | 39 | 318 | 0.0 | 0.9 | 0.00 | 0.00 | 0.00 | 89 | 1016.6 |
| 20260507025004 | 40 | 321 | 0.0 | 0.9 | 0.00 | 0.00 | 0.00 | 89 | 1016.4 |
| 20260507024504 | 40 | 321 | 0.0 | 1.7 | 0.00 | 0.00 | 0.00 | 89 | 1016.3 |
| 20260507024003 | 40 | 304 | 0.9 | 0.9 | 0.00 | 0.00 | 0.00 | 89 | 1016.3 |
| 20260507023004 | 41 | 314 | 0.9 | 2.6 | 0.00 | 0.00 | 0.00 | 89 | 1016.3 |
| 20260507022503 | 41 | 300 | 0.9 | 1.7 | 0.00 | 0.00 | 0.00 | 88 | 1016.3 |
| 20260507022003 | 41 | 298 | 0.9 | 1.7 | 0.00 | 0.00 | 0.00 | 88 | 1016.2 |
| 20260507020504 | 42 | 298 | 0.9 | 1.7 | 0.00 | 0.00 | 0.00 | 86 | 1016.2 |
| 20260507015504 | 43 | 348 | 0.9 | 2.6 | 0.00 | 0.00 | 0.00 | 85 | 1016.1 |
| 20260507014004 | 45 | 46 | 1.7 | 4.3 | 0.00 | 0.00 | 0.00 | 84 | 1016.1 |
| 20260507013504 | 45 | 46 | 0.9 | 2.6 | 0.00 | 0.00 | 0.00 | 84 | 1016.1 |
| 20260507013005 | 45 | 53 | 2.6 | 7.0 | 0.00 | 0.00 | 0.00 | 84 | 1016.1 |
| 20260507012004 | 45 | 65 | 1.7 | 6.1 | 0.00 | 0.00 | 0.00 | 85 | 1016.0 |
| 20260507011004 | 44 | 71 | 1.7 | 4.3 | 0.00 | 0.00 | 0.00 | 85 | 1016.0 |
| 20260507005004 | 45 | 87 | 2.6 | 5.2 | 0.00 | 0.00 | 0.00 | 85 | 1016.0 |
| 20260507003504 | 45 | 61 | 1.7 | 6.1 | 0.00 | 0.00 | 0.00 | 85 | 1015.8 |
| 20260507003004 | 45 | 68 | 1.7 | 6.1 | 0.00 | 0.00 | 0.00 | 84 | 1015.7 |
| 20260506234004 | 46 | 50 | 5.2 | 10.4 | 0.00 | 0.00 | 0.00 | 83 | 1015.6 |
| 20260506233504 | 45 | 60 | 3.5 | 10.4 | 0.00 | 0.00 | 0.00 | 83 | 1015.6 |
| 20260506233004 | 45 | 59 | 5.2 | 10.4 | 0.00 | 0.00 | 0.00 | 83 | 1015.6 |
| 20260506232504 | 45 | 60 | 3.5 | 10.4 | 0.00 | 0.00 | 0.00 | 83 | 1015.5 |
| 20260506232004 | 46 | 50 | 4.3 | 10.4 | 0.00 | 0.00 | 0.00 | 84 | 1015.6 |
| 20260506230504 | 46 | 55 | 4.3 | 10.4 | 0.00 | 0.00 | 0.00 | 84 | 1015.7 |
| 20260506225504 | 46 | 52 | 5.2 | 10.4 | 0.00 | 0.00 | 0.00 | 84 | 1015.7 |
| 20260506224504 | 46 | 52 | 2.6 | 7.0 | 0.00 | 0.00 | 0.00 | 84 | 1015.7 |
| 20260506222004 | 45 | 50 | 6.1 | 11.3 | 0.00 | 0.00 | 0.00 | 84 | 1015.5 |
| 20260506221003 | 45 | 64 | 5.2 | 10.4 | 0.00 | 0.00 | 0.00 | 84 | 1015.6 |
| 20260506214003 | 45 | 60 | 3.5 | 7.8 | 0.00 | 0.00 | 0.00 | 84 | 1015.3 |
| 20260506212003 | 45 | 63 | 5.2 | 10.4 | 0.00 | 0.00 | 0.00 | 84 | 1015.3 |
| 20260506211504 | 45 | 61 | 4.3 | 7.0 | 0.00 | 0.00 | 0.00 | 84 | 1015.3 |
| 20260506211004 | 45 | 65 | 3.5 | 7.0 | 0.00 | 0.00 | 0.00 | 84 | 1015.3 |
| 20260506205504 | 45 | 68 | 3.5 | 10.4 | 0.00 | 0.00 | 0.00 | 83 | 1015.3 |
| 20260506202504 | 45 | 89 | 4.3 | 12.2 | 0.00 | 0.00 | 0.00 | 84 | 1015.3 |
| 20260506200004 | 45 | 67 | 6.1 | 11.3 | 0.00 | 0.00 | 0.00 | 85 | 1015.0 |
| 20260506195503 | 45 | 62 | 6.1 | 11.3 | 0.00 | 0.00 | 0.00 | 85 | 1015.0 |
| 20260506195004 | 45 | 78 | 4.3 | 13.9 | 0.00 | 0.00 | 0.00 | 85 | 1014.9 |
| 20260506194504 | 45 | 64 | 4.3 | 10.4 | 0.00 | 0.00 | 0.00 | 85 | 1015.0 |
| 20260506194004 | 45 | 66 | 6.1 | 13.0 | 0.00 | 0.00 | 0.00 | 85 | 1015.0 |
| 20260506193504 | 45 | 65 | 6.1 | 14.8 | 0.00 | 0.00 | 0.00 | 85 | 1014.9 |
| 20260506193004 | 45 | 66 | 4.3 | 10.4 | 0.00 | 0.00 | 0.00 | 85 | 1015.1 |
| 20260506192004 | 45 | 78 | 6.1 | 12.2 | 0.00 | 0.00 | 0.00 | 85 | 1015.1 |
| 20260506191504 | 45 | 67 | 5.2 | 13.9 | 0.00 | 0.00 | 0.00 | 84 | 1015.1 |
| 20260506191003 | 45 | 76 | 5.2 | 12.2 | 0.00 | 0.00 | 0.00 | 84 | 1015.1 |
| 20260506185504 | 45 | 90 | 6.1 | 11.3 | 0.00 | 0.00 | 0.00 | 84 | 1014.8 |
| 20260506183504 | 46 | 77 | 5.2 | 12.2 | 0.00 | 0.00 | 0.00 | 84 | 1014.6 |
| 20260506183005 | 46 | 75 | 7.0 | 13.0 | 0.00 | 0.00 | 0.00 | 84 | 1014.5 |
| 20260506182504 | 46 | 88 | 6.1 | 13.0 | 0.00 | 0.00 | 0.00 | 84 | 1014.5 |
| 20260506182004 | 46 | 91 | 7.8 | 15.6 | 0.00 | 0.00 | 0.00 | 84 | 1014.4 |
| 20260506181003 | 46 | 76 | 6.1 | 14.8 | 0.00 | 0.00 | 0.00 | 83 | 1014.5 |
| 20260506180504 | 46 | 86 | 5.2 | 11.3 | 0.00 | 0.00 | 0.00 | 83 | 1014.4 |
| 20260506175504 | 46 | 75 | 7.8 | 13.9 | 0.00 | 0.00 | 0.00 | 82 | 1014.3 |
| 20260506174504 | 47 | 82 | 6.1 | 13.9 | 0.00 | 0.00 | 0.00 | 82 | 1014.3 |
| 20260506171003 | 48 | 68 | 5.2 | 13.9 | 0.00 | 0.00 | 0.00 | 80 | 1014.1 |
| 20260506165003 | 48 | 69 | 6.1 | 11.3 | 0.00 | 0.00 | 0.00 | 80 | 1013.8 |
| 20260506163502 | 49 | 57 | 7.0 | 14.8 | 0.00 | 0.00 | 0.00 | 78 | 1013.8 |
| 20260506162502 | 49 | 54 | 10.4 | 15.6 | 0.00 | 0.00 | 0.00 | 78 | 1013.8 |
| 20260506155003 | 50 | 56 | 6.1 | 13.9 | 0.00 | 0.00 | 0.00 | 80 | 1013.6 |
| 20260506154503 | 50 | 58 | 7.0 | 15.6 | 0.00 | 0.00 | 0.00 | 80 | 1013.6 |
| 20260506154003 | 51 | 53 | 7.0 | 15.6 | 0.00 | 0.00 | 0.00 | 79 | 1013.6 |
| 20260506153503 | 51 | 48 | 7.8 | 14.8 | 0.00 | 0.00 | 0.00 | 79 | 1013.5 |
| 20260506152503 | 51 | 56 | 7.8 | 13.9 | 0.00 | 0.00 | 0.00 | 79 | 1013.4 |
| 20260506151502 | 51 | 54 | 7.0 | 14.8 | 0.00 | 0.00 | 0.00 | 80 | 1013.5 |
| 20260506151003 | 51 | 52 | 7.8 | 13.0 | 0.00 | 0.00 | 0.00 | 79 | 1013.4 |
| 20260506145502 | 51 | 55 | 7.8 | 14.8 | 0.00 | 0.00 | 0.00 | 80 | 1013.4 |
| 20260506144503 | 52 | 49 | 7.8 | 14.8 | 0.00 | 0.00 | 0.00 | 79 | 1013.4 |
| 20260506143003 | 51 | 52 | 9.6 | 15.6 | 0.00 | 0.00 | 0.00 | 79 | 1013.2 |
| 20260506142503 | 52 | 45 | 7.0 | 12.2 | 0.00 | 0.00 | 0.00 | 79 | 1013.2 |
| 20260506142003 | 51 | 70 | 7.0 | 14.8 | 0.00 | 0.00 | 0.00 | 79 | 1013.2 |
| 20260506141002 | 52 | 64 | 7.8 | 13.0 | 0.00 | 0.00 | 0.00 | 77 | 1013.2 |
| 20260506135003 | 52 | 57 | 7.8 | 13.0 | 0.00 | 0.00 | 0.00 | 75 | 1013.1 |
| 20260506134502 | 52 | 55 | 9.6 | 15.6 | 0.00 | 0.00 | 0.00 | 72 | 1013.1 |
| 20260506134003 | 52 | 55 | 8.7 | 13.0 | 0.00 | 0.00 | 0.00 | 71 | 1013.1 |
| 20260506133503 | 53 | 71 | 6.1 | 10.4 | 0.00 | 0.00 | 0.00 | 71 | 1013.0 |
| 20260506133003 | 53 | 49 | 8.7 | 13.0 | 0.00 | 0.00 | 0.00 | 70 | 1013.0 |
| 20260506130004 | 54 | 52 | 7.0 | 11.3 | 0.00 | 0.00 | 0.00 | 67 | 1012.8 |
| 20260506125003 | 54 | 57 | 8.7 | 12.2 | 0.00 | 0.00 | 0.00 | 65 | 1012.7 |
| 20260506124502 | 54 | 49 | 5.2 | 12.2 | 0.00 | 0.00 | 0.00 | 68 | 1012.6 |
| 20260506124003 | 54 | 56 | 6.1 | 12.2 | 0.00 | 0.00 | 0.00 | 69 | 1012.7 |
| 20260506123002 | 54 | 55 | 6.1 | 17.4 | 0.00 | 0.00 | 0.00 | 69 | 1012.6 |
| 20260506122503 | 54 | 67 | 7.0 | 12.2 | 0.00 | 0.00 | 0.00 | 71 | 1012.5 |
| 20260506122002 | 54 | 43 | 7.8 | 12.2 | 0.00 | 0.00 | 0.00 | 69 | 1012.3 |
| 20260506121503 | 55 | 51 | 5.2 | 14.8 | 0.00 | 0.00 | 0.00 | 69 | 1012.4 |
| 20260506120502 | 54 | 42 | 4.3 | 10.4 | 0.00 | 0.00 | 0.00 | 70 | 1012.4 |
| 20260506114003 | 54 | 52 | 5.2 | 10.4 | 0.00 | 0.00 | 0.00 | 73 | 1012.4 |
| 20260506111003 | 54 | 57 | 2.6 | 11.3 | 0.00 | 0.00 | 0.00 | 75 | 1012.4 |
| 20260506110503 | 54 | 4 | 4.3 | 11.3 | 0.00 | 0.00 | 0.00 | 72 | 1012.4 |
| 20260506103502 | 55 | 53 | 7.8 | 11.3 | 0.00 | 0.00 | 0.00 | 71 | 1012.4 |
| 20260506103003 | 55 | 72 | 3.5 | 8.7 | 0.00 | 0.00 | 0.00 | 73 | 1012.3 |
| 20260506101503 | 55 | 32 | 2.6 | 7.8 | 0.00 | 0.00 | 0.00 | 68 | 1012.4 |
| 20260506100502 | 55 | 14 | 1.7 | 7.8 | 0.00 | 0.00 | 0.00 | 67 | 1012.3 |